sensor_id;sensor_type;location;lat;lon;timestamp;pressure;altitude;pressure_sealevel;temperature;humidity
72950;BME280;64868;45.710;9.590;2023-01-29T00:01:24;99627.91;;;0.49;63.05
72950;BME280;64868;45.710;9.590;2023-01-29T00:03:53;99621.19;;;0.30;63.65
72950;BME280;64868;45.710;9.590;2023-01-29T00:06:23;99623.09;;;0.24;63.87
72950;BME280;64868;45.710;9.590;2023-01-29T00:08:55;99624.03;;;0.22;63.84
72950;BME280;64868;45.710;9.590;2023-01-29T00:11:28;99626.34;;;0.40;63.95
72950;BME280;64868;45.710;9.590;2023-01-29T00:13:58;99634.28;;;0.45;63.87
72950;BME280;64868;45.710;9.590;2023-01-29T00:16:26;99647.09;;;0.32;63.95
72950;BME280;64868;45.710;9.590;2023-01-29T00:18:57;99633.13;;;0.16;64.64
72950;BME280;64868;45.710;9.590;2023-01-29T00:21:29;99622.50;;;0.12;64.12
72950;BME280;64868;45.710;9.590;2023-01-29T00:24:02;99625.19;;;0.12;64.54
72950;BME280;64868;45.710;9.590;2023-01-29T00:26:35;99633.13;;;0.15;64.25
72950;BME280;64868;45.710;9.590;2023-01-29T00:29:05;99625.19;;;0.10;63.98
72950;BME280;64868;45.710;9.590;2023-01-29T00:31:37;99626.28;;;0.02;63.75
72950;BME280;64868;45.710;9.590;2023-01-29T00:34:10;99636.53;;;0.24;63.99
72950;BME280;64868;45.710;9.590;2023-01-29T00:36:40;99626.22;;;0.05;64.44
72950;BME280;64868;45.710;9.590;2023-01-29T00:39:13;99629.78;;;0.04;64.67
72950;BME280;64868;45.710;9.590;2023-01-29T00:41:40;99622.56;;;0.09;64.74
72950;BME280;64868;45.710;9.590;2023-01-29T00:44:29;99614.56;;;0.06;64.56
72950;BME280;64868;45.710;9.590;2023-01-29T00:47:18;99620.03;;;0.01;65.02
72950;BME280;64868;45.710;9.590;2023-01-29T00:50:03;99635.09;;;0.08;65.21
72950;BME280;64868;45.710;9.590;2023-01-29T00:52:36;99623.47;;;0.08;64.04
72950;BME280;64868;45.710;9.590;2023-01-29T00:55:09;99615.88;;;0.28;63.29
72950;BME280;64868;45.710;9.590;2023-01-29T00:57:42;99617.59;;;0.32;63.11
72950;BME280;64868;45.710;9.590;2023-01-29T01:00:16;99626.94;;;0.13;64.16
72950;BME280;64868;45.710;9.590;2023-01-29T01:02:49;99636.06;;;0.04;64.62
72950;BME280;64868;45.710;9.590;2023-01-29T01:05:35;99614.84;;;-0.07;64.59
72950;BME280;64868;45.710;9.590;2023-01-29T01:08:05;99628.19;;;-0.04;64.21
72950;BME280;64868;45.710;9.590;2023-01-29T01:11:01;99628.97;;;0.02;64.45
72950;BME280;64868;45.710;9.590;2023-01-29T01:13:32;99622.00;;;-0.09;64.18
72950;BME280;64868;45.710;9.590;2023-01-29T01:16:00;99626.53;;;-0.11;64.67
72950;BME280;64868;45.710;9.590;2023-01-29T01:18:30;99627.03;;;0.08;63.75
72950;BME280;64868;45.710;9.590;2023-01-29T01:21:00;99633.41;;;0.03;63.75
72950;BME280;64868;45.710;9.590;2023-01-29T01:23:32;99626.28;;;0.02;64.32
72950;BME280;64868;45.710;9.590;2023-01-29T01:26:09;99629.63;;;0.13;63.56
72950;BME280;64868;45.710;9.590;2023-01-29T01:28:42;99622.72;;;0.01;63.50
72950;BME280;64868;45.710;9.590;2023-01-29T01:31:15;99642.88;;;0.20;63.80
72950;BME280;64868;45.710;9.590;2023-01-29T01:33:47;99627.28;;;-0.04;64.22
72950;BME280;64868;45.710;9.590;2023-01-29T01:36:20;99629.78;;;0.05;63.61
72950;BME280;64868;45.710;9.590;2023-01-29T01:38:50;99653.03;;;0.03;63.89
72950;BME280;64868;45.710;9.590;2023-01-29T01:41:21;99635.34;;;-0.06;64.02
72950;BME280;64868;45.710;9.590;2023-01-29T01:43:54;99667.25;;;0.07;64.14
72950;BME280;64868;45.710;9.590;2023-01-29T01:46:30;99646.06;;;-0.06;64.01
72950;BME280;64868;45.710;9.590;2023-01-29T01:49:17;99637.78;;;0.07;62.79
72950;BME280;64868;45.710;9.590;2023-01-29T01:51:51;99638.44;;;0.18;63.49
72950;BME280;64868;45.710;9.590;2023-01-29T01:54:21;99653.59;;;0.20;63.81
72950;BME280;64868;45.710;9.590;2023-01-29T01:56:53;99626.31;;;0.00;63.91
72950;BME280;64868;45.710;9.590;2023-01-29T01:59:25;99630.91;;;-0.07;64.11
72950;BME280;64868;45.710;9.590;2023-01-29T02:01:57;99629.22;;;-0.12;64.24
72950;BME280;64868;45.710;9.590;2023-01-29T02:04:46;99632.97;;;-0.21;64.03
72950;BME280;64868;45.710;9.590;2023-01-29T02:07:35;99651.25;;;0.04;64.10
72950;BME280;64868;45.710;9.590;2023-01-29T02:10:28;99636.47;;;-0.17;64.98
72950;BME280;64868;45.710;9.590;2023-01-29T02:13:03;99636.63;;;-0.25;65.08
72950;BME280;64868;45.710;9.590;2023-01-29T02:15:36;99644.53;;;-0.17;64.25
72950;BME280;64868;45.710;9.590;2023-01-29T02:18:10;99642.72;;;-0.17;65.01
72950;BME280;64868;45.710;9.590;2023-01-29T02:20:43;99637.31;;;-0.15;64.35
72950;BME280;64868;45.710;9.590;2023-01-29T02:31:41;99647.38;;;-0.27;64.81
72950;BME280;64868;45.710;9.590;2023-01-29T02:34:36;99649.84;;;-0.14;64.99
72950;BME280;64868;45.710;9.590;2023-01-29T02:37:31;99667.78;;;-0.19;65.36
72950;BME280;64868;45.710;9.590;2023-01-29T02:40:08;99673.13;;;-0.18;64.84
72950;BME280;64868;45.710;9.590;2023-01-29T02:42:54;99660.69;;;-0.22;64.64
72950;BME280;64868;45.710;9.590;2023-01-29T02:45:44;99682.41;;;0.09;63.96
72950;BME280;64868;45.710;9.590;2023-01-29T02:48:26;99660.50;;;-0.13;64.52
72950;BME280;64868;45.710;9.590;2023-01-29T02:51:01;99663.38;;;-0.22;64.63
72950;BME280;64868;45.710;9.590;2023-01-29T02:53:42;99678.44;;;-0.15;64.37
72950;BME280;64868;45.710;9.590;2023-01-29T02:56:18;99663.22;;;-0.14;64.55
72950;BME280;64868;45.710;9.590;2023-01-29T02:59:00;99662.50;;;-0.24;64.54
72950;BME280;64868;45.710;9.590;2023-01-29T03:01:36;99668.00;;;-0.30;65.20
72950;BME280;64868;45.710;9.590;2023-01-29T03:04:11;99658.38;;;-0.42;65.25
72950;BME280;64868;45.710;9.590;2023-01-29T03:06:47;99680.53;;;-0.32;65.29
72950;BME280;64868;45.710;9.590;2023-01-29T03:09:22;99672.69;;;-0.43;65.98
72950;BME280;64868;45.710;9.590;2023-01-29T03:11:57;99679.50;;;-0.25;64.96
72950;BME280;64868;45.710;9.590;2023-01-29T03:14:36;99667.16;;;-0.34;65.48
72950;BME280;64868;45.710;9.590;2023-01-29T03:17:25;99663.75;;;-0.43;65.32
72950;BME280;64868;45.710;9.590;2023-01-29T03:19:58;99675.22;;;-0.35;65.37
72950;BME280;64868;45.710;9.590;2023-01-29T03:22:28;99665.53;;;-0.42;65.59
72950;BME280;64868;45.710;9.590;2023-01-29T03:24:56;99682.41;;;-0.37;65.24
72950;BME280;64868;45.710;9.590;2023-01-29T03:27:56;99661.09;;;-0.43;65.12
72950;BME280;64868;45.710;9.590;2023-01-29T03:30:57;99659.44;;;-0.51;65.04
72950;BME280;64868;45.710;9.590;2023-01-29T03:33:49;99668.34;;;-0.48;65.44
72950;BME280;64868;45.710;9.590;2023-01-29T03:36:24;99680.72;;;-0.43;65.80
72950;BME280;64868;45.710;9.590;2023-01-29T03:38:56;99668.34;;;-0.50;65.29
72950;BME280;64868;45.710;9.590;2023-01-29T03:41:39;99663.88;;;-0.50;65.83
72950;BME280;64868;45.710;9.590;2023-01-29T03:46:54;99675.44;;;-0.47;64.97
72950;BME280;64868;45.710;9.590;2023-01-29T03:49:34;99668.28;;;-0.47;64.99
72950;BME280;64868;45.710;9.590;2023-01-29T03:52:21;99685.84;;;-0.31;64.59
72950;BME280;64868;45.710;9.590;2023-01-29T03:54:59;99671.00;;;-0.48;65.50
72950;BME280;64868;45.710;9.590;2023-01-29T04:02:49;99668.19;;;-0.42;64.81
72950;BME280;64868;45.710;9.590;2023-01-29T04:05:23;99685.94;;;-0.35;65.08
72950;BME280;64868;45.710;9.590;2023-01-29T04:07:59;99667.44;;;-0.49;64.36
72950;BME280;64868;45.710;9.590;2023-01-29T04:10:30;99688.56;;;-0.32;64.19
72950;BME280;64868;45.710;9.590;2023-01-29T04:13:05;99685.09;;;-0.37;65.04
72950;BME280;64868;45.710;9.590;2023-01-29T04:15:42;99668.34;;;-0.48;64.31
72950;BME280;64868;45.710;9.590;2023-01-29T04:18:17;99670.09;;;-0.47;64.80
72950;BME280;64868;45.710;9.590;2023-01-29T04:20:45;99669.22;;;-0.48;64.79
72950;BME280;64868;45.710;9.590;2023-01-29T04:23:23;99690.41;;;-0.36;64.78
72950;BME280;64868;45.710;9.590;2023-01-29T04:26:03;99669.31;;;-0.53;65.15
72950;BME280;64868;45.710;9.590;2023-01-29T04:29:08;99683.44;;;-0.44;65.27
72950;BME280;64868;45.710;9.590;2023-01-29T04:31:55;99656.94;;;-0.60;65.22
72950;BME280;64868;45.710;9.590;2023-01-29T04:34:28;99680.91;;;-0.54;65.90
72950;BME280;64868;45.710;9.590;2023-01-29T04:37:22;99676.41;;;-0.52;65.34
72950;BME280;64868;45.710;9.590;2023-01-29T04:40:11;99665.00;;;-0.63;65.38
72950;BME280;64868;45.710;9.590;2023-01-29T04:43:04;99671.19;;;-0.61;65.54
72950;BME280;64868;45.710;9.590;2023-01-29T04:45:46;99679.75;;;-0.37;64.35
72950;BME280;64868;45.710;9.590;2023-01-29T04:51:09;99685.28;;;-0.50;65.07
72950;BME280;64868;45.710;9.590;2023-01-29T04:53:45;99682.66;;;-0.51;65.49
72950;BME280;64868;45.710;9.590;2023-01-29T04:59:08;99674.66;;;-0.53;64.70
72950;BME280;64868;45.710;9.590;2023-01-29T05:01:42;99662.22;;;-0.57;64.50
72950;BME280;64868;45.710;9.590;2023-01-29T05:04:15;99683.44;;;-0.44;64.17
72950;BME280;64868;45.710;9.590;2023-01-29T05:06:50;99677.34;;;-0.53;64.61
72950;BME280;64868;45.710;9.590;2023-01-29T05:09:21;99683.69;;;-0.60;65.25
72950;BME280;64868;45.710;9.590;2023-01-29T05:11:51;99679.97;;;-0.51;64.88
72950;BME280;64868;45.710;9.590;2023-01-29T05:14:26;99677.44;;;-0.59;65.07
72950;BME280;64868;45.710;9.590;2023-01-29T05:16:58;99684.53;;;-0.58;65.08
72950;BME280;64868;45.710;9.590;2023-01-29T05:19:31;99673.13;;;-0.67;65.50
72950;BME280;64868;45.710;9.590;2023-01-29T05:22:05;99686.22;;;-0.51;65.15
72950;BME280;64868;45.710;9.590;2023-01-29T05:24:40;99683.44;;;-0.46;64.08
72950;BME280;64868;45.710;9.590;2023-01-29T05:27:19;99695.72;;;-0.33;63.89
72950;BME280;64868;45.710;9.590;2023-01-29T05:30:07;99694.94;;;-0.38;64.74
72950;BME280;64868;45.710;9.590;2023-01-29T05:32:40;99678.91;;;-0.42;64.43
72950;BME280;64868;45.710;9.590;2023-01-29T05:35:12;99673.66;;;-0.47;64.66
72950;BME280;64868;45.710;9.590;2023-01-29T05:37:38;99684.44;;;-0.52;64.94
72950;BME280;64868;45.710;9.590;2023-01-29T05:40:08;99703.44;;;-0.16;63.22
72950;BME280;64868;45.710;9.590;2023-01-29T05:42:38;99705.44;;;-0.27;63.89
72950;BME280;64868;45.710;9.590;2023-01-29T05:45:10;99682.47;;;-0.40;63.64
72950;BME280;64868;45.710;9.590;2023-01-29T05:47:40;99682.50;;;-0.43;63.79
72950;BME280;64868;45.710;9.590;2023-01-29T05:50:11;99681.16;;;-0.18;62.66
72950;BME280;64868;45.710;9.590;2023-01-29T05:52:44;99693.81;;;-0.26;63.30
72950;BME280;64868;45.710;9.590;2023-01-29T05:55:14;99689.72;;;-0.47;63.95
72950;BME280;64868;45.710;9.590;2023-01-29T05:57:45;99682.00;;;-0.65;64.74
72950;BME280;64868;45.710;9.590;2023-01-29T06:00:16;99693.59;;;-0.63;65.04
72950;BME280;64868;45.710;9.590;2023-01-29T06:02:48;99699.94;;;-0.70;65.54
72950;BME280;64868;45.710;9.590;2023-01-29T06:05:21;99703.38;;;-0.62;64.81
72950;BME280;64868;45.710;9.590;2023-01-29T06:07:54;99699.94;;;-0.70;65.06
72950;BME280;64868;45.710;9.590;2023-01-29T06:10:24;99702.59;;;-0.69;65.16
72950;BME280;64868;45.710;9.590;2023-01-29T06:12:54;99695.38;;;-0.65;64.89
72950;BME280;64868;45.710;9.590;2023-01-29T06:15:27;99721.06;;;-0.52;64.23
72950;BME280;64868;45.710;9.590;2023-01-29T06:17:57;99729.97;;;-0.52;64.41
72950;BME280;64868;45.710;9.590;2023-01-29T06:20:30;99731.03;;;-0.60;64.27
72950;BME280;64868;45.710;9.590;2023-01-29T06:23:03;99727.28;;;-0.52;64.19
72950;BME280;64868;45.710;9.590;2023-01-29T06:25:35;99710.59;;;-0.67;64.58
72950;BME280;64868;45.710;9.590;2023-01-29T06:28:08;99731.78;;;-0.54;63.83
72950;BME280;64868;45.710;9.590;2023-01-29T06:30:41;99717.63;;;-0.60;64.69
72950;BME280;64868;45.710;9.590;2023-01-29T06:33:13;99734.47;;;-0.54;64.19
72950;BME280;64868;45.710;9.590;2023-01-29T06:35:41;99742.50;;;-0.54;64.57
72950;BME280;64868;45.710;9.590;2023-01-29T06:38:09;99735.47;;;-0.59;64.80
72950;BME280;64868;45.710;9.590;2023-01-29T06:40:39;99739.88;;;-0.57;64.15
72950;BME280;64868;45.710;9.590;2023-01-29T06:43:12;99743.28;;;-0.45;63.69
72950;BME280;64868;45.710;9.590;2023-01-29T06:45:54;99739.72;;;-0.47;64.19
72950;BME280;64868;45.710;9.590;2023-01-29T06:48:27;99749.53;;;-0.46;63.81
72950;BME280;64868;45.710;9.590;2023-01-29T06:51:02;99755.75;;;-0.44;64.01
72950;BME280;64868;45.710;9.590;2023-01-29T06:53:36;99753.19;;;-0.54;64.56
72950;BME280;64868;45.710;9.590;2023-01-29T06:56:06;99753.19;;;-0.54;64.67
72950;BME280;64868;45.710;9.590;2023-01-29T06:58:41;99748.56;;;-0.42;63.68
72950;BME280;64868;45.710;9.590;2023-01-29T07:01:11;99752.25;;;-0.50;64.32
72950;BME280;64868;45.710;9.590;2023-01-29T07:03:47;99762.81;;;-0.40;64.44
72950;BME280;64868;45.710;9.590;2023-01-29T07:06:20;99768.06;;;-0.33;63.95
72950;BME280;64868;45.710;9.590;2023-01-29T07:08:49;99768.94;;;-0.32;63.68
72950;BME280;64868;45.710;9.590;2023-01-29T07:11:20;99766.03;;;-0.20;63.55
72950;BME280;64868;45.710;9.590;2023-01-29T07:13:52;99774.81;;;-0.10;63.40
72950;BME280;64868;45.710;9.590;2023-01-29T07:16:23;99774.66;;;-0.03;63.32
72950;BME280;64868;45.710;9.590;2023-01-29T07:18:53;99777.16;;;0.07;62.81
72950;BME280;64868;45.710;9.590;2023-01-29T07:21:23;99780.63;;;0.13;62.83
72950;BME280;64868;45.710;9.590;2023-01-29T07:23:55;99784.94;;;0.22;62.22
72950;BME280;64868;45.710;9.590;2023-01-29T07:26:24;99777.75;;;0.24;62.46
72950;BME280;64868;45.710;9.590;2023-01-29T07:28:54;99780.25;;;0.33;61.49
72950;BME280;64868;45.710;9.590;2023-01-29T07:31:27;99787.16;;;0.46;61.39
72950;BME280;64868;45.710;9.590;2023-01-29T07:33:57;99785.25;;;0.53;61.22
72950;BME280;64868;45.710;9.590;2023-01-29T07:36:27;99791.34;;;0.60;60.97
72950;BME280;64868;45.710;9.590;2023-01-29T07:38:59;99797.41;;;0.69;60.31
72950;BME280;64868;45.710;9.590;2023-01-29T07:41:30;99800.72;;;0.82;59.89
72950;BME280;64868;45.710;9.590;2023-01-29T07:44:02;99797.03;;;0.88;59.74
72950;BME280;64868;45.710;9.590;2023-01-29T07:46:33;99793.25;;;0.96;59.23
72950;BME280;64868;45.710;9.590;2023-01-29T07:49:03;99786.69;;;1.10;58.71
72950;BME280;64868;45.710;9.590;2023-01-29T07:51:31;99795.38;;;1.23;58.57
72950;BME280;64868;45.710;9.590;2023-01-29T07:54:03;99802.34;;;1.31;58.02
72950;BME280;64868;45.710;9.590;2023-01-29T07:56:33;99800.41;;;1.36;57.83
72950;BME280;64868;45.710;9.590;2023-01-29T07:59:04;99807.34;;;1.46;57.02
72950;BME280;64868;45.710;9.590;2023-01-29T08:01:36;99803.59;;;1.54;56.44
72950;BME280;64868;45.710;9.590;2023-01-29T08:04:09;99815.09;;;1.60;56.70
72950;BME280;64868;45.710;9.590;2023-01-29T08:06:42;99822.91;;;1.71;57.00
72950;BME280;64868;45.710;9.590;2023-01-29T08:09:14;99815.28;;;1.88;56.30
72950;BME280;64868;45.710;9.590;2023-01-29T08:11:42;99813.06;;;2.06;56.05
72950;BME280;64868;45.710;9.590;2023-01-29T08:14:12;99809.41;;;2.08;54.21
72950;BME280;64868;45.710;9.590;2023-01-29T08:16:45;99831.53;;;2.19;55.13
72950;BME280;64868;45.710;9.590;2023-01-29T08:19:15;99833.88;;;2.33;54.44
72950;BME280;64868;45.710;9.590;2023-01-29T08:21:45;99823.34;;;2.24;52.69
72950;BME280;64868;45.710;9.590;2023-01-29T08:24:16;99842.25;;;2.55;52.76
72950;BME280;64868;45.710;9.590;2023-01-29T08:26:46;99834.09;;;2.58;51.84
72950;BME280;64868;45.710;9.590;2023-01-29T08:29:16;99854.34;;;2.73;52.87
72950;BME280;64868;45.710;9.590;2023-01-29T08:31:47;99858.50;;;2.83;53.33
72950;BME280;64868;45.710;9.590;2023-01-29T08:34:19;99857.59;;;2.84;52.49
72950;BME280;64868;45.710;9.590;2023-01-29T08:36:50;99852.22;;;2.84;51.63
72950;BME280;64868;45.710;9.590;2023-01-29T08:39:20;99877.50;;;3.10;51.25
72950;BME280;64868;45.710;9.590;2023-01-29T08:41:47;99873.63;;;3.20;50.71
72950;BME280;64868;45.710;9.590;2023-01-29T08:44:20;99872.44;;;3.30;50.60
72950;BME280;64868;45.710;9.590;2023-01-29T08:46:53;99879.88;;;3.21;51.09
72950;BME280;64868;45.710;9.590;2023-01-29T08:49:20;99877.63;;;3.36;49.70
72950;BME280;64868;45.710;9.590;2023-01-29T08:51:51;99875.78;;;3.38;50.50
72950;BME280;64868;45.710;9.590;2023-01-29T08:54:21;99867.81;;;3.63;50.42
72950;BME280;64868;45.710;9.590;2023-01-29T08:56:51;99854.34;;;3.92;48.97
72950;BME280;64868;45.710;9.590;2023-01-29T08:59:24;99852.53;;;4.19;48.45
72950;BME280;64868;45.710;9.590;2023-01-29T09:01:54;99861.50;;;5.90;44.81
72950;BME280;64868;45.710;9.590;2023-01-29T09:04:24;99854.13;;;13.92;29.60
72950;BME280;64868;45.710;9.590;2023-01-29T09:06:54;99861.78;;;17.30;23.45
72950;BME280;64868;45.710;9.590;2023-01-29T09:09:25;99870.88;;;19.71;19.84
72950;BME280;64868;45.710;9.590;2023-01-29T09:11:57;99872.38;;;20.30;18.55
72950;BME280;64868;45.710;9.590;2023-01-29T09:14:30;99864.41;;;20.55;18.74
72950;BME280;64868;45.710;9.590;2023-01-29T09:17:02;99871.22;;;19.96;19.04
72950;BME280;64868;45.710;9.590;2023-01-29T09:19:30;99873.53;;;18.85;19.39
72950;BME280;64868;45.710;9.590;2023-01-29T09:22:01;99878.56;;;20.52;18.17
72950;BME280;64868;45.710;9.590;2023-01-29T09:24:31;99887.19;;;21.30;17.73
72950;BME280;64868;45.710;9.590;2023-01-29T09:27:03;99882.34;;;23.13;15.88
72950;BME280;64868;45.710;9.590;2023-01-29T09:29:36;99894.03;;;23.82;15.28
72950;BME280;64868;45.710;9.590;2023-01-29T09:32:06;99900.09;;;23.12;15.58
72950;BME280;64868;45.710;9.590;2023-01-29T09:34:34;99901.19;;;23.76;15.34
72950;BME280;64868;45.710;9.590;2023-01-29T09:37:01;99900.13;;;23.52;15.81
72950;BME280;64868;45.710;9.590;2023-01-29T09:39:34;99887.16;;;24.72;14.56
72950;BME280;64868;45.710;9.590;2023-01-29T09:42:07;99890.41;;;24.84;15.68
72950;BME280;64868;45.710;9.590;2023-01-29T09:45:02;99889.97;;;26.40;12.65
72950;BME280;64868;45.710;9.590;2023-01-29T09:47:34;99886.31;;;25.49;13.57
72950;BME280;64868;45.710;9.590;2023-01-29T09:50:28;99881.50;;;25.66;13.75
72950;BME280;64868;45.710;9.590;2023-01-29T09:53:04;99880.50;;;25.13;13.43
72950;BME280;64868;45.710;9.590;2023-01-29T09:55:44;99892.81;;;25.87;13.55
72950;BME280;64868;45.710;9.590;2023-01-29T10:23:40;99870.00;;;23.40;15.72
72950;BME280;64868;45.710;9.590;2023-01-29T10:26:15;99868.38;;;22.88;15.59
72950;BME280;64868;45.710;9.590;2023-01-29T10:28:47;99863.13;;;24.71;13.64
72950;BME280;64868;45.710;9.590;2023-01-29T10:31:19;99860.28;;;24.80;14.24
72950;BME280;64868;45.710;9.590;2023-01-29T10:33:55;99865.75;;;25.50;13.17
72950;BME280;64868;45.710;9.590;2023-01-29T10:36:37;99850.28;;;26.15;12.95
72950;BME280;64868;45.710;9.590;2023-01-29T10:39:16;99849.13;;;24.48;13.35
72950;BME280;64868;45.710;9.590;2023-01-29T10:42:11;99837.91;;;21.06;16.84
72950;BME280;64868;45.710;9.590;2023-01-29T10:47:50;99824.78;;;23.87;15.08
72950;BME280;64868;45.710;9.590;2023-01-29T10:50:45;99823.59;;;24.91;14.98
72950;BME280;64868;45.710;9.590;2023-01-29T10:53:29;99813.78;;;20.80;17.36
72950;BME280;64868;45.710;9.590;2023-01-29T10:56:22;99812.97;;;23.27;14.87
72950;BME280;64868;45.710;9.590;2023-01-29T10:59:00;99797.88;;;24.10;14.81
72950;BME280;64868;45.710;9.590;2023-01-29T11:01:35;99794.09;;;22.56;16.21
72950;BME280;64868;45.710;9.590;2023-01-29T11:04:08;99804.44;;;22.96;16.14
72950;BME280;64868;45.710;9.590;2023-01-29T11:06:38;99775.28;;;22.33;16.35
72950;BME280;64868;45.710;9.590;2023-01-29T11:12:20;99779.94;;;20.95;17.41
72950;BME280;64868;45.710;9.590;2023-01-29T11:15:00;99767.47;;;20.73;17.79
72950;BME280;64868;45.710;9.590;2023-01-29T11:17:32;99765.91;;;20.42;17.66
72950;BME280;64868;45.710;9.590;2023-01-29T11:20:05;99759.44;;;20.06;19.01
72950;BME280;64868;45.710;9.590;2023-01-29T11:22:59;99752.06;;;17.75;20.72
72950;BME280;64868;45.710;9.590;2023-01-29T11:25:27;99747.28;;;18.37;20.83
72950;BME280;64868;45.710;9.590;2023-01-29T11:28:01;99741.91;;;18.84;20.73
72950;BME280;64868;45.710;9.590;2023-01-29T11:30:38;99735.47;;;17.66;22.33
72950;BME280;64868;45.710;9.590;2023-01-29T11:33:28;99735.19;;;15.90;24.04
72950;BME280;64868;45.710;9.590;2023-01-29T11:36:01;99721.34;;;15.36;25.38
72950;BME280;64868;45.710;9.590;2023-01-29T11:38:46;99720.50;;;16.65;23.93
72950;BME280;64868;45.710;9.590;2023-01-29T11:41:15;99728.88;;;16.43;24.65
72950;BME280;64868;45.710;9.590;2023-01-29T11:43:48;99721.84;;;15.52;25.82
72950;BME280;64868;45.710;9.590;2023-01-29T11:46:18;99716.19;;;15.87;25.63
72950;BME280;64868;45.710;9.590;2023-01-29T11:48:50;99708.34;;;14.93;26.14
72950;BME280;64868;45.710;9.590;2023-01-29T11:51:27;99708.09;;;15.41;26.40
72950;BME280;64868;45.710;9.590;2023-01-29T11:54:03;99693.38;;;13.30;29.67
72950;BME280;64868;45.710;9.590;2023-01-29T11:56:41;99704.31;;;11.18;32.58
72950;BME280;64868;45.710;9.590;2023-01-29T12:01:50;99700.50;;;9.10;36.55
72950;BME280;64868;45.710;9.590;2023-01-29T12:04:27;99700.94;;;8.69;37.94
72950;BME280;64868;45.710;9.590;2023-01-29T12:06:57;99693.31;;;8.60;38.93
72950;BME280;64868;45.710;9.590;2023-01-29T12:09:29;99691.53;;;8.59;38.41
72950;BME280;64868;45.710;9.590;2023-01-29T12:12:17;99692.41;;;8.60;39.59
72950;BME280;64868;45.710;9.590;2023-01-29T12:15:09;99699.88;;;8.39;40.21
72950;BME280;64868;45.710;9.590;2023-01-29T12:17:46;99687.38;;;8.17;39.95
72950;BME280;64868;45.710;9.590;2023-01-29T12:20:24;99678.25;;;8.37;39.20
72950;BME280;64868;45.710;9.590;2023-01-29T12:23:40;99675.50;;;8.20;38.76
72950;BME280;64868;45.710;9.590;2023-01-29T12:26:00;99670.00;;;8.04;40.91
72950;BME280;64868;45.710;9.590;2023-01-29T12:31:48;99662.88;;;8.01;40.34
72950;BME280;64868;45.710;9.590;2023-01-29T12:37:17;99665.34;;;8.06;39.61
72950;BME280;64868;45.710;9.590;2023-01-29T12:39:47;99656.25;;;8.07;40.75
72950;BME280;64868;45.710;9.590;2023-01-29T12:42:23;99646.03;;;7.77;39.99
72950;BME280;64868;45.710;9.590;2023-01-29T12:44:56;99645.22;;;7.93;41.20
72950;BME280;64868;45.710;9.590;2023-01-29T12:50:04;99626.44;;;8.05;39.76
72950;BME280;64868;45.710;9.590;2023-01-29T12:56:03;99629.63;;;8.14;40.88
72950;BME280;64868;45.710;9.590;2023-01-29T12:58:41;99622.84;;;8.22;40.46
72950;BME280;64868;45.710;9.590;2023-01-29T13:01:14;99611.53;;;7.97;40.73
72950;BME280;64868;45.710;9.590;2023-01-29T13:04:01;99619.19;;;7.71;41.04
72950;BME280;64868;45.710;9.590;2023-01-29T13:06:35;99596.44;;;7.56;42.44
72950;BME280;64868;45.710;9.590;2023-01-29T13:09:10;99606.03;;;7.81;40.79
72950;BME280;64868;45.710;9.590;2023-01-29T13:11:55;99600.19;;;7.71;40.77
72950;BME280;64868;45.710;9.590;2023-01-29T13:14:59;99587.59;;;7.70;40.91
72950;BME280;64868;45.710;9.590;2023-01-29T13:17:43;99587.91;;;7.82;40.70
72950;BME280;64868;45.710;9.590;2023-01-29T13:20:16;99576.41;;;7.76;42.21
72950;BME280;64868;45.710;9.590;2023-01-29T13:22:46;99579.41;;;7.88;42.04
72950;BME280;64868;45.710;9.590;2023-01-29T13:25:21;99582.22;;;7.86;42.02
72950;BME280;64868;45.710;9.590;2023-01-29T13:27:49;99567.16;;;7.63;42.07
72950;BME280;64868;45.710;9.590;2023-01-29T13:30:28;99570.28;;;7.73;42.06
72950;BME280;64868;45.710;9.590;2023-01-29T13:32:58;99562.75;;;7.61;41.08
72950;BME280;64868;45.710;9.590;2023-01-29T13:35:51;99568.03;;;7.81;41.82
72950;BME280;64868;45.710;9.590;2023-01-29T13:38:29;99561.75;;;7.80;42.05
72950;BME280;64868;45.710;9.590;2023-01-29T13:41:08;99556.47;;;7.77;40.87
72950;BME280;64868;45.710;9.590;2023-01-29T13:43:44;99561.75;;;7.80;42.34
72950;BME280;64868;45.710;9.590;2023-01-29T13:46:20;99559.44;;;7.73;41.13
72950;BME280;64868;45.710;9.590;2023-01-29T13:48:51;99547.44;;;7.60;42.24
72950;BME280;64868;45.710;9.590;2023-01-29T13:51:29;99549.28;;;7.59;42.26
72950;BME280;64868;45.710;9.590;2023-01-29T13:54:12;99556.47;;;7.77;41.83
72950;BME280;64868;45.710;9.590;2023-01-29T13:59:52;99550.38;;;7.72;42.00
72950;BME280;64868;45.710;9.590;2023-01-29T14:02:31;99545.75;;;7.74;41.33
72950;BME280;64868;45.710;9.590;2023-01-29T14:10:33;99551.19;;;7.74;42.33
72950;BME280;64868;45.710;9.590;2023-01-29T14:15:31;99543.66;;;7.79;41.87
72950;BME280;64868;45.710;9.590;2023-01-29T14:20:51;99522.47;;;7.53;42.56
72950;BME280;64868;45.710;9.590;2023-01-29T14:26:00;99522.41;;;7.54;43.30
72950;BME280;64868;45.710;9.590;2023-01-29T14:28:32;99511.34;;;7.57;41.94
72950;BME280;64868;45.710;9.590;2023-01-29T14:31:01;99527.31;;;7.64;42.20
72950;BME280;64868;45.710;9.590;2023-01-29T14:33:40;99516.25;;;7.51;42.08
72950;BME280;64868;45.710;9.590;2023-01-29T14:36:12;99523.13;;;7.58;42.92
72950;BME280;64868;45.710;9.590;2023-01-29T14:38:45;99513.78;;;7.46;42.59
72950;BME280;64868;45.710;9.590;2023-01-29T14:41:37;99506.44;;;7.48;42.15
72950;BME280;64868;45.710;9.590;2023-01-29T14:56:26;99521.69;;;7.51;43.58
72950;BME280;64868;45.710;9.590;2023-01-29T14:59:16;99505.88;;;7.42;42.80
72950;BME280;64868;45.710;9.590;2023-01-29T15:01:50;99501.56;;;7.38;43.03
72950;BME280;64868;45.710;9.590;2023-01-29T15:04:40;99500.63;;;7.39;43.46
72950;BME280;64868;45.710;9.590;2023-01-29T15:10:17;99513.16;;;7.24;44.26
72950;BME280;64868;45.710;9.590;2023-01-29T15:13:01;99517.50;;;7.26;45.07
72950;BME280;64868;45.710;9.590;2023-01-29T15:15:54;99520.88;;;7.31;43.62
72950;BME280;64868;45.710;9.590;2023-01-29T15:18:39;99511.31;;;7.24;44.01
72950;BME280;64868;45.710;9.590;2023-01-29T15:21:14;99504.19;;;7.22;43.34
72950;BME280;64868;45.710;9.590;2023-01-29T15:23:44;99517.44;;;7.11;44.98
72950;BME280;64868;45.710;9.590;2023-01-29T15:26:20;99524.69;;;7.10;44.51
72950;BME280;64868;45.710;9.590;2023-01-29T15:29:02;99532.97;;;7.07;44.58